createdAt,value
2023-03-10T00:01:59.717Z,16.8
2023-03-10T00:17:09.541Z,19.1
2023-03-10T00:32:19.017Z,14.7
2023-03-10T00:47:28.213Z,16.3
2023-03-10T01:02:37.717Z,17.6
2023-03-10T01:17:46.949Z,13
2023-03-10T01:32:56.351Z,12.9
2023-03-10T01:48:05.392Z,13.4
2023-03-10T02:03:15.496Z,8.9
2023-03-10T02:18:25.197Z,8
2023-03-10T02:33:34.672Z,6.1
2023-03-10T02:48:44.604Z,7.1
2023-03-10T03:03:53.461Z,6
2023-03-10T03:19:02.704Z,5.3
2023-03-10T03:34:12.283Z,3.7
2023-03-10T03:49:21.735Z,4.7
2023-03-10T04:04:31.490Z,3.6
2023-03-10T04:19:41.116Z,4.5
2023-03-10T04:34:50.651Z,4.4
2023-03-10T04:50:00.276Z,4.4
2023-03-10T05:05:09.784Z,5.1
2023-03-10T05:20:19.402Z,3.4
2023-03-10T05:35:29.158Z,6.8
2023-03-10T05:50:39.867Z,4.4
2023-03-10T06:05:49.373Z,4
2023-03-10T06:20:59.464Z,4.7
2023-03-10T06:36:09.965Z,11
2023-03-10T06:51:19.727Z,4.7
2023-03-10T07:06:29.458Z,5.6
2023-03-10T07:21:39.998Z,5.4
2023-03-10T07:36:50.061Z,4.4
2023-03-10T07:51:59.852Z,4.2
2023-03-10T08:07:09.622Z,4.8
2023-03-10T08:22:22.999Z,5.3
2023-03-10T08:37:32.740Z,7.4
2023-03-10T08:52:42.872Z,4.8
2023-03-10T09:07:52.620Z,2.6
2023-03-10T09:23:02.292Z,4.1
2023-03-10T09:38:12.272Z,3.3
2023-03-10T09:53:21.908Z,5
2023-03-10T10:08:31.507Z,3.6
2023-03-10T10:23:40.961Z,5.3
2023-03-10T10:38:50.669Z,7.1
2023-03-10T10:54:00.393Z,3.9
2023-03-10T11:09:12.780Z,7.1
2023-03-10T11:24:26.185Z,6.8
2023-03-10T11:39:36.606Z,13.9
2023-03-10T11:54:46.419Z,7.5
2023-03-10T12:09:55.824Z,7.5
2023-03-10T12:25:05.712Z,6.1
2023-03-10T12:40:15.654Z,13.3
2023-03-10T12:55:25.675Z,11.4
2023-03-10T13:10:34.948Z,33.7
2023-03-10T13:25:44.855Z,5.7
2023-03-10T13:40:54.769Z,5.7
2023-03-10T13:56:04.559Z,10.2
2023-03-10T14:11:14.429Z,3.8
2023-03-10T14:26:24.101Z,3.6
2023-03-10T14:41:33.456Z,3.6
2023-03-10T14:56:43.118Z,5
2023-03-10T15:11:52.648Z,3.3
2023-03-10T15:27:02.488Z,6
2023-03-10T15:42:12.582Z,5.7
2023-03-10T15:57:21.763Z,6.5
2023-03-10T16:12:31.295Z,10.5
2023-03-10T16:27:40.953Z,11.7
2023-03-10T16:42:50.245Z,16.6
2023-03-10T16:57:59.685Z,14.1
2023-03-10T17:13:09.140Z,13.3
2023-03-10T17:28:18.834Z,15.2
2023-03-10T17:43:34.894Z,14.4
2023-03-10T17:58:44.332Z,15.9
2023-03-10T18:13:53.764Z,15.5
2023-03-10T18:29:03.895Z,14.5
2023-03-10T18:44:13.101Z,12.9
2023-03-10T18:59:22.381Z,14.7
2023-03-10T19:14:31.540Z,13.6
2023-03-10T19:29:40.808Z,7.5
2023-03-10T19:44:50.190Z,6.5
2023-03-10T19:59:59.498Z,8.9
2023-03-10T20:15:09.050Z,10
2023-03-10T20:30:18.509Z,16.6
2023-03-10T20:45:27.872Z,11.8
2023-03-10T21:00:41.291Z,9
2023-03-10T21:15:50.141Z,11
2023-03-10T21:31:00.347Z,12.8
2023-03-10T21:46:10.155Z,13.2
2023-03-10T22:01:19.702Z,14.7
2023-03-10T22:16:29.261Z,14.4
2023-03-10T22:31:40.521Z,16
2023-03-10T22:46:51.401Z,12.1
2023-03-10T23:02:00.877Z,15.1
2023-03-10T23:17:10.476Z,18.9
2023-03-10T23:32:19.919Z,23.2
2023-03-10T23:47:30.069Z,23.7
